Quonset State Airport North Kingstown US
ICAO: KOQU
IATA: OQU
Category: Medium
Scheduled Services: No

Elevation: 18 ft
TransAlt. 18000 ft.

Airport Communications:
PROVIDENCE APP/DEP:135.4
CTAF:126.35
GND:134.5
ANG OPS:38.33
ARNG OPS:38.95
BRIDGEPORT RDO:122.3
TWR:126.35
UNICOM:122.95

KOQU Zoom In..

If Map Doesn't Load, Click Here

Runways:

(A) RW 05 length 4000 ft width 75 ft
---- / hdg 49

(B) RW 16 length 7504 ft width 150 ft
ILS 109.50 / hdg 160

(C) RW 23 length 4000 ft width 75 ft
---- / hdg 229

(D) RW 34 length 7504 ft width 150 ft
---- / hdg 340

Location; KOQU
Day. 21 / Time. 12.50 Zulu
* Altimeter: 30.30
* Temperature: 18° c. 64.4°f.
* Wind from: 140° Speed 07 kn.
Dewpoint: 11° c.
Visibility: 15 Statute Miles.
Clouds: Few 2000 ft.
Clouds: Few 2000 ft.

KOQU 211250Z 14007KT 15SM FEW020 FEW200 18/11 A3030


Wind From 140°
Speed 07 kn.

 
 
jpsmedia.com for Web Design worldairports.se 2018   terms of use